createdAt,value
2018-09-10T00:02:16.270Z,101660.08
2018-09-10T00:04:45.804Z,101662.77
2018-09-10T00:07:15.325Z,101655.72
2018-09-10T00:09:44.650Z,101654.39
2018-09-10T00:12:13.763Z,101658.45
2018-09-10T00:14:43.827Z,101655.83
2018-09-10T00:17:13.532Z,101649.63
2018-09-10T00:19:42.920Z,101659.40
2018-09-10T00:22:12.255Z,101659.84
2018-09-10T00:24:43.149Z,101653.20
2018-09-10T00:27:12.238Z,101654.97
2018-09-10T00:29:41.888Z,101645.27
2018-09-10T00:32:11.391Z,101641.69
2018-09-10T00:34:41.699Z,101643.46
2018-09-10T00:37:11.131Z,101633.73
2018-09-10T00:39:41.122Z,101635.97
2018-09-10T00:42:10.894Z,101631.14
2018-09-10T00:44:40.760Z,101626.71
2018-09-10T00:47:10.681Z,101625.86
2018-09-10T00:49:40.436Z,101623.20
2018-09-10T00:52:10.394Z,101624.98
2018-09-10T00:54:41.236Z,101620.55
2018-09-10T00:57:10.947Z,101624.02
2018-09-10T00:59:41.504Z,101619.59
2018-09-10T01:02:11.997Z,101611.70
2018-09-10T01:04:41.736Z,101619.56
2018-09-10T01:07:11.063Z,101616.42
2018-09-10T01:09:40.793Z,101610.67
2018-09-10T01:12:10.113Z,101609.30
2018-09-10T01:14:39.479Z,101610.59
2018-09-10T01:17:09.024Z,101609.23
2018-09-10T01:19:38.726Z,101598.08
2018-09-10T01:22:08.297Z,101605.12
2018-09-10T01:24:37.810Z,101598.93
2018-09-10T01:27:07.264Z,101594.50
2018-09-10T01:29:36.760Z,101590.07
2018-09-10T01:32:06.289Z,101587.38
2018-09-10T01:34:41.001Z,101574.97
2018-09-10T01:37:10.246Z,101582.87
2018-09-10T01:39:39.497Z,101585.13
2018-09-10T01:42:08.931Z,101579.41
2018-09-10T01:44:38.206Z,101580.29
2018-09-10T01:47:07.867Z,101582.50
2018-09-10T01:49:37.380Z,101569.66
2018-09-10T01:52:06.752Z,101567.41
2018-09-10T01:54:36.117Z,101572.20
2018-09-10T01:57:06.259Z,101562.42
2018-09-10T01:59:35.609Z,101564.67
2018-09-10T02:02:05.055Z,101559.39
2018-09-10T02:04:34.492Z,101554.52
2018-09-10T02:07:04.213Z,101383.86
2018-09-10T02:09:33.711Z,101541.28
2018-09-10T02:12:03.112Z,101535.56
2018-09-10T02:14:32.617Z,101536.01
2018-09-10T02:17:02.051Z,101534.23
2018-09-10T02:19:31.434Z,101526.23
2018-09-10T02:22:01.829Z,101524.45
2018-09-10T02:24:31.294Z,101520.95
2018-09-10T02:27:00.976Z,101510.77
2018-09-10T02:29:30.330Z,101511.61
2018-09-10T02:31:59.980Z,101512.98
2018-09-10T02:34:29.550Z,101504.97
2018-09-10T02:36:59.064Z,101503.23
2018-09-10T02:39:28.473Z,101510.36
2018-09-10T02:41:58.121Z,101497.08
2018-09-10T02:44:27.496Z,101489.11
2018-09-10T02:46:57.649Z,101483.80
2018-09-10T02:49:27.585Z,101478.08
2018-09-10T02:51:57.611Z,101486.05
2018-09-10T02:54:26.770Z,101477.16
2018-09-10T02:56:56.111Z,101477.59
2018-09-10T02:59:25.814Z,101470.51
2018-09-10T03:01:55.447Z,101474.90
2018-09-10T03:04:24.726Z,101469.59
2018-09-10T03:06:54.504Z,101468.70
2018-09-10T03:09:24.475Z,101473.97
2018-09-10T03:11:54.525Z,101463.34
2018-09-10T03:14:24.384Z,101466.88
2018-09-10T03:16:58.074Z,101463.34
2018-09-10T03:19:27.514Z,101454.48
2018-09-10T03:21:56.871Z,101453.59
2018-09-10T03:24:26.371Z,101451.83
2018-09-10T03:26:56.001Z,101439.03
2018-09-10T03:29:25.567Z,101440.31
2018-09-10T03:31:54.982Z,101442.08
2018-09-10T03:34:24.266Z,101437.66
2018-09-10T03:36:53.899Z,101439.42
2018-09-10T03:39:23.471Z,101428.36
2018-09-10T03:41:52.960Z,101430.58
2018-09-10T03:44:22.404Z,101420.78
2018-09-10T03:46:51.764Z,101424.32
2018-09-10T03:49:21.313Z,101412.33
2018-09-10T03:51:50.607Z,101414.18
2018-09-10T03:54:20.136Z,101410.59
2018-09-10T03:56:49.650Z,101406.20
2018-09-10T03:59:19.027Z,101399.13
2018-09-10T04:01:48.765Z,101401.78
2018-09-10T04:04:18.364Z,101390.71
2018-09-10T04:06:47.545Z,101392.05
2018-09-10T04:09:16.594Z,101391.59
2018-09-10T04:11:45.928Z,101398.64
2018-09-10T04:14:15.221Z,101396.42
2018-09-10T04:16:44.317Z,101392.00
2018-09-10T04:19:13.727Z,101389.34
2018-09-10T04:21:43.448Z,101384.38
2018-09-10T04:24:12.399Z,101383.54
2018-09-10T04:26:41.463Z,101389.30
2018-09-10T04:29:10.964Z,101375.95
2018-09-10T04:31:42.013Z,101371.97
2018-09-10T04:34:11.112Z,101375.47
2018-09-10T04:36:40.071Z,101377.69
2018-09-10T04:39:10.650Z,101384.33
2018-09-10T04:41:42.977Z,101388.80
2018-09-10T04:44:12.015Z,101379.94
2018-09-10T04:46:41.256Z,101390.48
2018-09-10T04:49:10.721Z,101379.85
2018-09-10T04:51:39.882Z,101380.29
2018-09-10T04:54:09.128Z,101372.77
2018-09-10T04:56:38.201Z,101374.97
2018-09-10T04:59:07.332Z,101368.33
2018-09-10T05:01:36.565Z,101375.41
2018-09-10T05:04:06.547Z,101377.98
2018-09-10T05:06:36.012Z,101361.98
2018-09-10T05:09:06.698Z,101372.56
2018-09-10T05:11:35.716Z,101367.30
2018-09-10T05:14:04.803Z,101363.37
2018-09-10T05:16:33.935Z,101367.34
2018-09-10T05:19:04.652Z,101359.47
2018-09-10T05:21:34.968Z,101356.72
2018-09-10T05:24:04.063Z,101354.11
2018-09-10T05:26:33.303Z,101349.67
2018-09-10T05:29:02.452Z,101347.96
2018-09-10T05:31:31.666Z,101341.81
2018-09-10T05:34:01.091Z,101337.34
2018-09-10T05:36:30.483Z,101334.66
2018-09-10T05:38:59.609Z,101328.41
2018-09-10T05:41:28.795Z,101327.43
2018-09-10T05:43:57.940Z,101328.21
2018-09-10T05:46:26.937Z,101332.58
2018-09-10T05:48:56.006Z,101327.89
2018-09-10T05:51:24.990Z,101332.22
2018-09-10T05:53:54.144Z,101340.80
2018-09-10T05:56:23.236Z,101343.06
2018-09-10T05:58:52.480Z,101343.01
2018-09-10T06:01:21.577Z,101343.90
2018-09-10T06:03:50.758Z,101343.90
2018-09-10T06:06:20.139Z,101335.87
2018-09-10T06:08:49.463Z,101334.82
2018-09-10T06:11:18.642Z,101329.44
2018-09-10T06:13:47.769Z,101335.10
2018-09-10T06:16:16.904Z,101332.38
2018-09-10T06:18:45.941Z,101328.27
2018-09-10T06:21:14.955Z,101310.92
2018-09-10T06:23:44.099Z,101311.31
2018-09-10T06:26:13.485Z,101302.78
2018-09-10T06:28:42.581Z,101329.81
2018-09-10T06:31:11.541Z,101339.96
2018-09-10T06:33:40.635Z,101338.97
2018-09-10T06:36:09.880Z,101346.88
2018-09-10T06:38:39.493Z,101343.19
2018-09-10T06:41:08.875Z,101338.61
2018-09-10T06:43:38.321Z,101345.00
2018-09-10T06:46:07.821Z,101346.43
2018-09-10T06:48:36.997Z,101341.66
2018-09-10T06:51:07.750Z,101335.50
2018-09-10T06:53:36.758Z,101333.30
2018-09-10T06:56:06.749Z,101335.95
2018-09-10T06:58:36.769Z,101344.09
2018-09-10T07:01:06.169Z,101347.38
2018-09-10T07:03:35.267Z,101340.70
2018-09-10T07:06:04.453Z,101348.30
2018-09-10T07:08:33.744Z,101352.86
2018-09-10T07:11:02.949Z,101351.13
2018-09-10T07:13:32.028Z,101355.52
2018-09-10T07:16:01.539Z,101348.47
2018-09-10T07:18:30.873Z,101352.02
2018-09-10T07:21:00.057Z,101360.86
2018-09-10T07:23:29.169Z,101357.81
2018-09-10T07:25:58.637Z,101353.83
2018-09-10T07:28:27.767Z,101349.84
2018-09-10T07:30:57.447Z,101351.17
2018-09-10T07:33:26.470Z,101344.89
2018-09-10T07:35:55.488Z,101351.00
2018-09-10T07:38:24.691Z,101347.14
2018-09-10T07:40:53.859Z,101339.94
2018-09-10T07:43:22.921Z,101344.72
2018-09-10T07:45:51.905Z,101342.95
2018-09-10T07:48:22.172Z,101344.67
2018-09-10T07:50:51.235Z,101345.60
2018-09-10T07:53:20.872Z,101353.62
2018-09-10T07:55:51.200Z,101363.47
2018-09-10T07:58:20.403Z,101383.91
2018-09-10T08:00:49.873Z,101381.38
2018-09-10T08:03:19.382Z,101391.18
2018-09-10T08:05:48.725Z,101394.72
2018-09-10T08:08:17.846Z,101396.05
2018-09-10T08:10:47.035Z,101396.97
2018-09-10T08:13:16.172Z,101382.34
2018-09-10T08:15:45.506Z,101383.27
2018-09-10T08:18:14.604Z,101377.19
2018-09-10T08:20:43.722Z,101373.44
2018-09-10T08:23:12.812Z,101367.58
2018-09-10T08:25:42.189Z,101381.31
2018-09-10T08:28:11.227Z,101391.45
2018-09-10T08:30:40.659Z,101381.65
2018-09-10T08:33:09.758Z,101375.42
2018-09-10T08:35:38.839Z,101364.73
2018-09-10T08:38:08.061Z,101362.87
2018-09-10T08:40:37.036Z,101374.45
2018-09-10T08:43:06.854Z,101382.41
2018-09-10T08:45:35.918Z,101388.73
2018-09-10T08:48:04.981Z,101395.28
2018-09-10T08:50:33.980Z,101390.77
2018-09-10T08:53:04.308Z,101393.53
2018-09-10T08:55:33.736Z,101387.36
2018-09-10T08:58:02.555Z,101386.94
2018-09-10T09:00:31.697Z,101378.70
2018-09-10T09:03:00.950Z,101378.19
2018-09-10T09:05:30.416Z,101381.46
2018-09-10T09:07:59.772Z,101381.12
2018-09-10T09:10:28.913Z,101386.16
2018-09-10T09:12:58.761Z,101387.75
2018-09-10T09:15:28.527Z,101390.06
2018-09-10T09:17:58.591Z,101396.15
2018-09-10T09:20:27.640Z,101394.45
2018-09-10T09:22:56.753Z,101396.22
2018-09-10T09:25:25.850Z,101395.16
2018-09-10T09:27:54.906Z,101395.35
2018-09-10T09:30:24.329Z,101394.92
2018-09-10T09:32:53.195Z,101394.42
2018-09-10T09:36:26.123Z,101396.89
2018-09-10T09:39:00.218Z,101395.81
2018-09-10T09:41:34.549Z,101397.22
2018-09-10T09:44:08.577Z,101406.05
2018-09-10T09:46:38.133Z,101406.05
2018-09-10T09:49:07.478Z,101400.56
2018-09-10T09:51:36.589Z,101396.25
2018-09-10T09:54:06.250Z,101395.16
2018-09-10T09:56:35.358Z,101401.15
2018-09-10T09:59:05.109Z,101401.95
2018-09-10T10:01:39.284Z,101406.17
2018-09-10T10:04:09.215Z,101399.55
2018-09-10T10:06:38.536Z,101402.87
2018-09-10T10:09:10.040Z,101410.14
2018-09-10T10:11:39.616Z,101402.90
2018-09-10T10:14:09.121Z,101401.27
2018-09-10T10:16:38.524Z,101402.39
2018-09-10T10:19:07.746Z,101406.53
2018-09-10T10:21:36.845Z,101404.72
2018-09-10T10:24:06.021Z,101402.21
2018-09-10T10:26:35.086Z,101405.70
2018-09-10T10:29:06.604Z,101408.72
2018-09-10T10:31:36.384Z,101411.62
2018-09-10T10:34:05.699Z,101409.55
2018-09-10T10:36:34.895Z,101418.14
2018-09-10T10:39:05.735Z,101413.97
2018-09-10T10:41:35.089Z,101419.01
2018-09-10T10:44:04.720Z,101418.86
2018-09-10T10:46:34.000Z,101422.93
2018-09-10T10:49:03.902Z,101429.35
2018-09-10T10:51:33.500Z,101431.21
2018-09-10T10:54:02.768Z,101433.90
2018-09-10T10:56:32.902Z,101426.20
2018-09-10T10:59:03.388Z,101427.70
2018-09-10T11:01:32.817Z,101426.06
2018-09-10T11:04:02.696Z,101428.86
2018-09-10T11:06:32.871Z,101431.77
2018-09-10T11:09:02.368Z,101431.13
2018-09-10T11:11:31.378Z,101432.53
2018-09-10T11:14:01.245Z,101440.25
2018-09-10T11:16:31.994Z,101327.67
2018-09-10T11:19:02.228Z,101441.66
2018-09-10T11:21:33.533Z,101301.12
2018-09-10T11:24:02.770Z,101432.31
2018-09-10T11:26:31.993Z,101437.19
2018-09-10T11:29:01.418Z,101432.63
2018-09-10T11:31:30.917Z,101434.46
2018-09-10T11:34:00.841Z,101433.03
2018-09-10T11:36:30.801Z,101431.77
2018-09-10T11:39:00.232Z,101440.75
2018-09-10T11:41:30.568Z,101438.85
2018-09-10T11:44:00.354Z,101442.17
2018-09-10T11:46:30.951Z,101437.11
2018-09-10T11:49:00.694Z,101440.37
2018-09-10T11:51:30.093Z,101451.28
2018-09-10T11:53:59.919Z,101455.87
2018-09-10T11:56:29.162Z,101453.53
2018-09-10T11:59:00.289Z,101460.86
2018-09-10T12:01:30.292Z,101454.92
2018-09-10T12:04:00.505Z,101454.63
2018-09-10T12:06:29.791Z,101462.14
2018-09-10T12:08:59.738Z,101467.09
2018-09-10T12:11:29.490Z,101462.55
2018-09-10T12:13:59.315Z,101467.74
2018-09-10T12:16:29.175Z,101474.03
2018-09-10T12:18:59.729Z,101474.14
2018-09-10T12:21:29.184Z,101477.41
2018-09-10T12:23:59.178Z,101477.11
2018-09-10T12:26:28.519Z,101482.02
2018-09-10T12:28:59.247Z,101485.99
2018-09-10T12:31:29.451Z,101487.92
2018-09-10T12:33:58.704Z,101493.92
2018-09-10T12:36:28.178Z,101487.28
2018-09-10T12:38:57.537Z,101480.83
2018-09-10T12:41:26.839Z,101487.33
2018-09-10T12:43:55.956Z,101492.98
2018-09-10T12:46:25.122Z,101492.83
2018-09-10T12:48:54.292Z,101483.02
2018-09-10T12:51:23.580Z,101481.97
2018-09-10T12:53:52.602Z,101487.63
2018-09-10T12:56:21.968Z,101484.53
2018-09-10T12:58:51.259Z,101495.27
2018-09-10T13:01:21.741Z,101490.29
2018-09-10T13:03:50.761Z,101494.04
2018-09-10T13:06:20.135Z,101490.34
2018-09-10T13:08:49.746Z,101486.98
2018-09-10T13:11:18.943Z,101490.09
2018-09-10T13:13:47.966Z,101487.06
2018-09-10T13:16:17.524Z,101492.88
2018-09-10T13:18:46.690Z,101489.81
2018-09-10T13:21:15.897Z,101490.16
2018-09-10T13:23:45.102Z,101491.14
2018-09-10T13:26:14.339Z,101486.88
2018-09-10T13:28:43.485Z,101489.50
2018-09-10T13:31:12.469Z,101485.81
2018-09-10T13:33:41.607Z,101489.06
2018-09-10T13:36:10.823Z,101483.36
2018-09-10T13:38:39.964Z,101480.47
2018-09-10T13:41:09.469Z,101487.41
2018-09-10T13:43:38.577Z,101482.71
2018-09-10T13:46:07.790Z,101487.22
2018-09-10T13:48:37.084Z,101484.55
2018-09-10T13:51:06.345Z,101488.16
2018-09-10T13:53:35.350Z,101490.98
2018-09-10T13:56:04.441Z,101478.86
2018-09-10T13:58:33.510Z,101484.11
2018-09-10T14:01:02.665Z,101477.41
2018-09-10T14:03:32.290Z,101483.60
2018-09-10T14:06:01.811Z,101477.80
2018-09-10T14:08:30.927Z,101483.22
2018-09-10T14:11:00.309Z,101473.80
2018-09-10T14:13:29.561Z,101480.23
2018-09-10T14:15:58.889Z,101480.16
2018-09-10T14:18:28.055Z,101477.14
2018-09-10T14:20:57.351Z,101476.98
2018-09-10T14:23:26.753Z,101483.97
2018-09-10T14:25:55.840Z,101487.14
2018-09-10T14:28:25.435Z,101484.69
2018-09-10T14:30:54.586Z,101489.81
2018-09-10T14:33:24.938Z,101496.63
2018-09-10T14:35:54.082Z,101484.31
2018-09-10T14:38:23.129Z,101492.31
2018-09-10T14:40:52.336Z,101487.87
2018-09-10T14:43:21.656Z,101494.11
2018-09-10T14:45:51.091Z,101496.20
2018-09-10T14:48:20.211Z,101496.12
2018-09-10T14:50:49.422Z,101499.02
2018-09-10T14:53:18.680Z,101501.50
2018-09-10T14:55:47.826Z,101487.56
2018-09-10T14:58:17.362Z,101486.23
2018-09-10T15:00:46.479Z,101494.89
2018-09-10T15:03:15.547Z,101492.98
2018-09-10T15:05:44.875Z,101495.72
2018-09-10T15:08:13.984Z,101498.39
2018-09-10T15:10:43.160Z,101492.48
2018-09-10T15:13:12.565Z,101483.98
2018-09-10T15:15:42.173Z,101489.53
2018-09-10T15:18:11.348Z,101498.81
2018-09-10T15:20:40.814Z,101513.02
2018-09-10T15:23:10.139Z,101507.63
2018-09-10T15:25:39.249Z,101508.84
2018-09-10T15:28:08.754Z,101511.74
2018-09-10T15:30:38.206Z,101528.52
2018-09-10T15:33:07.408Z,101519.14
2018-09-10T15:35:36.708Z,101517.52
2018-09-10T15:38:06.020Z,101508.78
2018-09-10T15:40:35.246Z,101515.94
2018-09-10T15:43:05.522Z,101513.26
2018-09-10T15:45:34.984Z,101507.87
2018-09-10T15:48:04.261Z,101502.08
2018-09-10T15:50:34.120Z,101502.08
2018-09-10T15:53:03.931Z,101503.03
2018-09-10T15:55:33.263Z,101503.97
2018-09-10T15:58:02.993Z,101508.23
2018-09-10T16:00:32.332Z,101514.45
2018-09-10T16:03:02.260Z,101514.25
2018-09-10T16:05:31.696Z,101524.61
2018-09-10T16:08:00.993Z,101516.84
2018-09-10T16:10:30.628Z,101518.11
2018-09-10T16:13:00.353Z,101516.83
2018-09-10T16:15:29.710Z,101508.73
2018-09-10T16:17:58.970Z,101517.22
2018-09-10T16:20:28.134Z,101506.25
2018-09-10T16:22:57.536Z,101505.86
2018-09-10T16:25:26.702Z,101513.41
2018-09-10T16:27:56.055Z,101511.18
2018-09-10T16:30:25.271Z,101502.70
2018-09-10T16:32:55.134Z,101503.97
2018-09-10T16:35:24.575Z,101504.91
2018-09-10T16:37:53.757Z,101509.97
2018-09-10T16:40:23.459Z,101502.30
2018-09-10T16:42:52.579Z,101494.81
2018-09-10T16:45:22.799Z,101481.44
2018-09-10T16:47:51.999Z,101503.45
2018-09-10T16:50:21.182Z,101504.51
2018-09-10T16:52:50.399Z,101504.11
2018-09-10T16:55:19.666Z,101461.96
2018-09-10T16:57:48.868Z,101501.73
2018-09-10T17:00:18.435Z,101496.52
2018-09-10T17:02:47.910Z,101496.47
2018-09-10T17:05:17.253Z,101499.06
2018-09-10T17:07:46.583Z,101496.47
2018-09-10T17:10:15.991Z,101488.49
2018-09-10T17:12:45.616Z,101494.75
2018-09-10T17:15:14.815Z,101498.30
2018-09-10T17:17:43.912Z,101499.77
2018-09-10T17:20:13.421Z,101502.05
2018-09-10T17:22:43.167Z,101494.99
2018-09-10T17:25:12.347Z,101495.05
2018-09-10T17:27:41.648Z,101505.63
2018-09-10T17:30:10.891Z,101509.08
2018-09-10T17:32:41.712Z,101497.02
2018-09-10T17:35:10.803Z,101496.72
2018-09-10T17:37:40.400Z,101494.91
2018-09-10T17:40:09.588Z,101492.25
2018-09-10T17:42:38.737Z,101490.67
2018-09-10T17:46:11.752Z,101499.62
2018-09-10T17:48:40.941Z,101501.45
2018-09-10T17:51:10.045Z,101496.57
2018-09-10T17:53:39.300Z,101488.20
2018-09-10T17:56:08.405Z,101490.42
2018-09-10T17:58:38.142Z,101487.36
2018-09-10T18:01:08.788Z,101485.59
2018-09-10T18:03:38.417Z,101488.70
2018-09-10T18:06:08.003Z,101482.05
2018-09-10T18:08:37.349Z,101484.27
2018-09-10T18:11:06.914Z,101476.72
2018-09-10T18:13:36.355Z,101480.33
2018-09-10T18:16:06.542Z,101478.59
2018-09-10T18:18:36.332Z,101475.98
2018-09-10T18:21:05.842Z,101483.12
2018-09-10T18:23:35.031Z,101484.94
2018-09-10T18:26:04.595Z,101486.75
2018-09-10T18:28:33.876Z,101486.85
2018-09-10T18:31:02.860Z,101491.94
2018-09-10T18:33:32.942Z,101494.50
2018-09-10T18:36:02.568Z,101494.36
2018-09-10T18:38:32.428Z,101490.72
2018-09-10T18:41:01.993Z,101482.29
2018-09-10T18:43:31.625Z,101488.11
2018-09-10T18:46:01.121Z,101489.03
2018-09-10T18:48:30.898Z,101490.31
2018-09-10T18:51:00.537Z,101505.78
2018-09-10T18:53:30.026Z,101503.97
2018-09-10T18:55:59.630Z,101495.20
2018-09-10T18:58:29.180Z,101498.78
2018-09-10T19:00:58.870Z,101498.34
2018-09-10T19:03:28.277Z,101496.22
2018-09-10T19:05:57.700Z,101494.59
2018-09-10T19:08:27.133Z,101498.94
2018-09-10T19:10:56.629Z,101503.80
2018-09-10T19:13:26.014Z,101512.23
2018-09-10T19:15:55.757Z,101503.09
2018-09-10T19:18:31.122Z,101506.20
2018-09-10T19:21:00.825Z,101504.92
2018-09-10T19:23:30.345Z,101505.36
2018-09-10T19:26:00.143Z,101500.98
2018-09-10T19:28:29.582Z,101504.56
2018-09-10T19:30:59.283Z,101503.23
2018-09-10T19:33:28.627Z,101513.38
2018-09-10T19:35:58.386Z,101511.30
2018-09-10T19:38:28.423Z,101513.07
2018-09-10T19:40:58.298Z,101508.16
2018-09-10T19:43:27.623Z,101512.59
2018-09-10T19:45:57.152Z,101509.93
2018-09-10T19:48:26.814Z,101512.59
2018-09-10T19:50:56.902Z,101500.09
2018-09-10T19:53:26.306Z,101507.09
2018-09-10T19:55:55.678Z,101512.05
2018-09-10T19:58:25.237Z,101506.30
2018-09-10T20:00:54.664Z,101509.80
2018-09-10T20:03:24.028Z,101503.59
2018-09-10T20:05:53.403Z,101504.44
2018-09-10T20:08:23.859Z,101503.95
2018-09-10T20:10:53.349Z,101509.66
2018-09-10T20:13:23.087Z,101510.14
2018-09-10T20:15:52.340Z,101501.68
2018-09-10T20:18:21.433Z,101497.25
2018-09-10T20:20:50.646Z,101496.59
2018-09-10T20:23:21.716Z,101498.77
2018-09-10T20:25:51.109Z,101497.39
2018-09-10T20:28:21.039Z,101496.50
2018-09-10T20:30:50.457Z,101492.06
2018-09-10T20:33:19.988Z,101492.95
2018-09-10T20:35:49.459Z,101488.14
2018-09-10T20:38:18.995Z,101485.08
2018-09-10T20:40:48.473Z,101491.68
2018-09-10T20:43:17.914Z,101484.68
2018-09-10T20:45:47.335Z,101483.31
2018-09-10T20:48:16.854Z,101480.64
2018-09-10T20:50:46.420Z,101489.81
2018-09-10T20:53:15.762Z,101486.67
2018-09-10T20:55:45.120Z,101485.03
2018-09-10T20:58:14.729Z,101490.25
2018-09-10T21:00:44.278Z,101487.20
2018-09-10T21:03:13.514Z,101488.66
2018-09-10T21:05:43.252Z,101486.01
2018-09-10T21:08:12.756Z,101492.13
2018-09-10T21:10:42.064Z,101484.19
2018-09-10T21:13:11.449Z,101478.13
2018-09-10T21:15:41.087Z,101481.76
2018-09-10T21:18:10.649Z,101475.06
2018-09-10T21:20:40.025Z,101475.06
2018-09-10T21:23:09.817Z,101479.95
2018-09-10T21:25:41.134Z,101475.61
2018-09-10T21:28:11.476Z,101473.80
2018-09-10T21:30:41.059Z,101472.11
2018-09-10T21:33:11.891Z,101474.41
2018-09-10T21:35:42.405Z,101474.90
2018-09-10T21:38:12.181Z,101470.42
2018-09-10T21:40:42.559Z,101469.59
2018-09-10T21:43:12.366Z,101466.04
2018-09-10T21:45:41.832Z,101467.32
2018-09-10T21:48:11.459Z,101471.35
2018-09-10T21:50:40.739Z,101473.57
2018-09-10T21:53:10.149Z,101470.55
2018-09-10T21:55:39.629Z,101472.29
2018-09-10T21:58:09.178Z,101477.60
2018-09-10T22:00:43.043Z,101472.28
2018-09-10T22:03:28.609Z,101473.17
2018-09-10T22:05:58.466Z,101472.24
2018-09-10T22:08:28.400Z,101471.35
2018-09-10T22:10:58.071Z,101474.86
2018-09-10T22:13:27.562Z,101469.59
2018-09-10T22:15:56.656Z,101468.78
2018-09-10T22:18:26.419Z,101468.78
2018-09-10T22:20:56.964Z,101469.18
2018-09-10T22:23:26.431Z,101469.54
2018-09-10T22:25:56.416Z,101473.52
2018-09-10T22:28:25.857Z,101475.69
2018-09-10T22:30:55.323Z,101475.61
2018-09-10T22:33:24.936Z,101485.34
2018-09-10T22:35:54.353Z,101471.23
2018-09-10T22:38:24.932Z,101363.06
2018-09-10T22:40:54.490Z,101481.02
2018-09-10T22:43:25.030Z,101477.87
2018-09-10T22:45:54.375Z,101472.20
2018-09-10T22:48:23.930Z,101472.29
2018-09-10T22:50:53.351Z,101474.86
2018-09-10T22:53:23.046Z,101470.83
2018-09-10T22:55:52.347Z,101465.91
2018-09-10T22:58:21.580Z,101464.97
2018-09-10T23:00:50.807Z,101467.64
2018-09-10T23:03:20.242Z,101463.25
2018-09-10T23:05:49.658Z,101461.52
2018-09-10T23:08:19.723Z,101464.22
2018-09-10T23:10:49.266Z,101459.80
2018-09-10T23:13:19.195Z,101459.80
2018-09-10T23:15:48.899Z,101453.69
2018-09-10T23:18:18.154Z,101455.14
2018-09-10T23:20:47.515Z,101456.42
2018-09-10T23:23:16.754Z,101452.45
2018-09-10T23:25:46.196Z,101336.34
2018-09-10T23:28:15.972Z,101459.13
2018-09-10T23:30:45.412Z,101458.33
2018-09-10T23:33:14.879Z,101447.70
2018-09-10T23:35:44.268Z,101442.34
2018-09-10T23:38:13.744Z,101441.06
2018-09-10T23:40:43.363Z,101443.23
2018-09-10T23:43:12.864Z,101433.50
2018-09-10T23:45:42.402Z,101430.44
2018-09-10T23:48:11.775Z,101427.30
2018-09-10T23:50:41.116Z,101430.84
2018-09-10T23:53:10.773Z,101421.09
2018-09-10T23:55:40.322Z,101424.64
2018-09-10T23:58:09.705Z,101422.48
